sensor_id;sensor_type;location;lat;lon;timestamp;temperature;humidity
7894;DHT22;51343;51.396;6.656;2023-11-21T00:02:01;6.60;99.90
7894;DHT22;51343;51.396;6.656;2023-11-21T00:04:29;6.60;99.90
7894;DHT22;51343;51.396;6.656;2023-11-21T00:06:56;6.60;99.90
7894;DHT22;51343;51.396;6.656;2023-11-21T00:09:24;6.70;99.90
7894;DHT22;51343;51.396;6.656;2023-11-21T00:11:51;6.70;99.90
7894;DHT22;51343;51.396;6.656;2023-11-21T00:14:17;6.70;99.90
7894;DHT22;51343;51.396;6.656;2023-11-21T00:16:44;6.70;99.90
7894;DHT22;51343;51.396;6.656;2023-11-21T00:19:11;6.80;99.90
7894;DHT22;51343;51.396;6.656;2023-11-21T00:21:37;6.80;99.90
7894;DHT22;51343;51.396;6.656;2023-11-21T00:24:04;6.80;99.90
7894;DHT22;51343;51.396;6.656;2023-11-21T00:26:32;6.90;99.90
7894;DHT22;51343;51.396;6.656;2023-11-21T00:29:02;6.90;99.90
7894;DHT22;51343;51.396;6.656;2023-11-21T00:31:28;6.90;99.90
7894;DHT22;51343;51.396;6.656;2023-11-21T00:33:56;6.90;99.90
7894;DHT22;51343;51.396;6.656;2023-11-21T00:36:22;7.00;99.90
7894;DHT22;51343;51.396;6.656;2023-11-21T00:38:49;7.00;99.90
7894;DHT22;51343;51.396;6.656;2023-11-21T00:41:15;7.00;99.90
7894;DHT22;51343;51.396;6.656;2023-11-21T00:43:43;7.00;99.90
7894;DHT22;51343;51.396;6.656;2023-11-21T00:46:11;7.10;99.90
7894;DHT22;51343;51.396;6.656;2023-11-21T00:48:38;7.00;99.90
7894;DHT22;51343;51.396;6.656;2023-11-21T00:51:04;7.00;99.90
7894;DHT22;51343;51.396;6.656;2023-11-21T00:53:31;7.00;99.90
7894;DHT22;51343;51.396;6.656;2023-11-21T00:55:58;7.00;99.90
7894;DHT22;51343;51.396;6.656;2023-11-21T00:58:24;7.00;99.90
7894;DHT22;51343;51.396;6.656;2023-11-21T01:00:52;7.00;99.90
7894;DHT22;51343;51.396;6.656;2023-11-21T01:03:19;7.00;99.90
7894;DHT22;51343;51.396;6.656;2023-11-21T01:05:46;7.00;99.90
7894;DHT22;51343;51.396;6.656;2023-11-21T01:08:14;7.10;99.90
7894;DHT22;51343;51.396;6.656;2023-11-21T01:10:41;7.10;99.90
7894;DHT22;51343;51.396;6.656;2023-11-21T01:13:08;7.10;99.90
7894;DHT22;51343;51.396;6.656;2023-11-21T01:15:36;7.10;99.90
7894;DHT22;51343;51.396;6.656;2023-11-21T01:18:04;7.10;99.90
7894;DHT22;51343;51.396;6.656;2023-11-21T01:20:31;7.10;99.90
7894;DHT22;51343;51.396;6.656;2023-11-21T01:22:57;7.10;99.90
7894;DHT22;51343;51.396;6.656;2023-11-21T01:25:24;7.10;99.90
7894;DHT22;51343;51.396;6.656;2023-11-21T01:27:51;7.20;99.90
7894;DHT22;51343;51.396;6.656;2023-11-21T01:30:18;7.20;99.90
7894;DHT22;51343;51.396;6.656;2023-11-21T01:32:45;7.20;99.90
7894;DHT22;51343;51.396;6.656;2023-11-21T01:35:13;7.20;99.90
7894;DHT22;51343;51.396;6.656;2023-11-21T01:37:39;7.20;99.90
7894;DHT22;51343;51.396;6.656;2023-11-21T01:40:06;7.20;99.90
7894;DHT22;51343;51.396;6.656;2023-11-21T01:42:36;7.20;99.90
7894;DHT22;51343;51.396;6.656;2023-11-21T01:45:03;7.20;99.90
7894;DHT22;51343;51.396;6.656;2023-11-21T01:47:30;7.20;99.90
7894;DHT22;51343;51.396;6.656;2023-11-21T01:49:57;7.20;99.90
7894;DHT22;51343;51.396;6.656;2023-11-21T01:52:25;7.30;99.90
7894;DHT22;51343;51.396;6.656;2023-11-21T01:54:52;7.30;99.90
7894;DHT22;51343;51.396;6.656;2023-11-21T01:57:19;7.20;99.90
7894;DHT22;51343;51.396;6.656;2023-11-21T01:59:46;7.30;99.90
7894;DHT22;51343;51.396;6.656;2023-11-21T02:02:14;7.30;99.90
7894;DHT22;51343;51.396;6.656;2023-11-21T02:04:41;7.30;99.90
7894;DHT22;51343;51.396;6.656;2023-11-21T02:07:07;7.30;99.90
7894;DHT22;51343;51.396;6.656;2023-11-21T02:09:35;7.30;99.90
7894;DHT22;51343;51.396;6.656;2023-11-21T02:12:03;7.30;99.90
7894;DHT22;51343;51.396;6.656;2023-11-21T02:14:30;7.30;99.90
7894;DHT22;51343;51.396;6.656;2023-11-21T02:16:57;7.30;99.90
7894;DHT22;51343;51.396;6.656;2023-11-21T02:19:23;7.40;99.90
7894;DHT22;51343;51.396;6.656;2023-11-21T02:21:51;7.40;99.90
7894;DHT22;51343;51.396;6.656;2023-11-21T02:24:19;7.40;99.90
7894;DHT22;51343;51.396;6.656;2023-11-21T02:26:46;7.50;99.90
7894;DHT22;51343;51.396;6.656;2023-11-21T02:29:13;7.50;99.90
7894;DHT22;51343;51.396;6.656;2023-11-21T02:31:43;7.50;99.90
7894;DHT22;51343;51.396;6.656;2023-11-21T02:34:13;7.50;99.90
7894;DHT22;51343;51.396;6.656;2023-11-21T02:36:40;7.50;99.90
7894;DHT22;51343;51.396;6.656;2023-11-21T02:39:07;7.50;99.90
7894;DHT22;51343;51.396;6.656;2023-11-21T02:41:35;7.50;99.90
7894;DHT22;51343;51.396;6.656;2023-11-21T02:44:02;7.50;99.90
7894;DHT22;51343;51.396;6.656;2023-11-21T02:46:29;7.50;99.90
7894;DHT22;51343;51.396;6.656;2023-11-21T02:48:57;7.50;99.90
7894;DHT22;51343;51.396;6.656;2023-11-21T02:51:24;7.60;99.90
7894;DHT22;51343;51.396;6.656;2023-11-21T02:53:50;7.60;99.90
7894;DHT22;51343;51.396;6.656;2023-11-21T02:56:17;7.50;99.90
7894;DHT22;51343;51.396;6.656;2023-11-21T02:58:45;7.60;99.90
7894;DHT22;51343;51.396;6.656;2023-11-21T03:01:11;7.60;99.90
7894;DHT22;51343;51.396;6.656;2023-11-21T03:03:38;7.60;99.90
7894;DHT22;51343;51.396;6.656;2023-11-21T03:06:05;7.60;99.90
7894;DHT22;51343;51.396;6.656;2023-11-21T03:08:32;7.60;99.90
7894;DHT22;51343;51.396;6.656;2023-11-21T03:10:58;7.60;99.90
7894;DHT22;51343;51.396;6.656;2023-11-21T03:13:25;7.60;99.90
7894;DHT22;51343;51.396;6.656;2023-11-21T03:15:53;7.60;99.90
7894;DHT22;51343;51.396;6.656;2023-11-21T03:18:19;7.60;99.90
7894;DHT22;51343;51.396;6.656;2023-11-21T03:20:47;7.60;99.90
7894;DHT22;51343;51.396;6.656;2023-11-21T03:23:13;7.60;99.90
7894;DHT22;51343;51.396;6.656;2023-11-21T03:25:40;7.60;99.90
7894;DHT22;51343;51.396;6.656;2023-11-21T03:28:07;7.60;99.90
7894;DHT22;51343;51.396;6.656;2023-11-21T03:30:34;7.60;99.90
7894;DHT22;51343;51.396;6.656;2023-11-21T03:33:02;7.60;99.90
7894;DHT22;51343;51.396;6.656;2023-11-21T03:35:29;7.70;99.90
7894;DHT22;51343;51.396;6.656;2023-11-21T03:37:55;7.70;99.90
7894;DHT22;51343;51.396;6.656;2023-11-21T03:40:22;7.70;99.90
7894;DHT22;51343;51.396;6.656;2023-11-21T03:42:48;7.70;99.90
7894;DHT22;51343;51.396;6.656;2023-11-21T03:45:15;7.70;99.90
7894;DHT22;51343;51.396;6.656;2023-11-21T03:47:42;7.70;99.90
7894;DHT22;51343;51.396;6.656;2023-11-21T03:50:10;7.70;99.90
7894;DHT22;51343;51.396;6.656;2023-11-21T03:52:37;7.70;99.90
7894;DHT22;51343;51.396;6.656;2023-11-21T03:55:04;7.70;99.90
7894;DHT22;51343;51.396;6.656;2023-11-21T03:57:30;7.60;99.90
7894;DHT22;51343;51.396;6.656;2023-11-21T03:59:57;7.60;99.90
7894;DHT22;51343;51.396;6.656;2023-11-21T04:02:23;7.60;99.90
7894;DHT22;51343;51.396;6.656;2023-11-21T04:04:52;7.60;99.90
7894;DHT22;51343;51.396;6.656;2023-11-21T04:07:20;7.60;99.90
7894;DHT22;51343;51.396;6.656;2023-11-21T04:09:47;7.60;99.90
7894;DHT22;51343;51.396;6.656;2023-11-21T04:12:14;7.60;99.90
7894;DHT22;51343;51.396;6.656;2023-11-21T04:14:40;7.60;99.90
7894;DHT22;51343;51.396;6.656;2023-11-21T04:17:07;7.60;99.90
7894;DHT22;51343;51.396;6.656;2023-11-21T04:19:34;7.50;99.90
7894;DHT22;51343;51.396;6.656;2023-11-21T04:22:01;7.50;99.90
7894;DHT22;51343;51.396;6.656;2023-11-21T04:24:29;7.50;99.90
7894;DHT22;51343;51.396;6.656;2023-11-21T04:26:55;7.40;99.90
7894;DHT22;51343;51.396;6.656;2023-11-21T04:29:22;7.40;99.90
7894;DHT22;51343;51.396;6.656;2023-11-21T04:31:49;7.40;99.90
7894;DHT22;51343;51.396;6.656;2023-11-21T04:34:15;7.40;99.90
7894;DHT22;51343;51.396;6.656;2023-11-21T04:36:42;7.40;99.90
7894;DHT22;51343;51.396;6.656;2023-11-21T04:39:09;7.40;99.90
7894;DHT22;51343;51.396;6.656;2023-11-21T04:41:38;7.40;99.90
7894;DHT22;51343;51.396;6.656;2023-11-21T04:44:05;7.50;99.90
7894;DHT22;51343;51.396;6.656;2023-11-21T04:46:32;7.50;99.90
7894;DHT22;51343;51.396;6.656;2023-11-21T04:48:58;7.50;99.90
7894;DHT22;51343;51.396;6.656;2023-11-21T04:51:25;7.50;99.90
7894;DHT22;51343;51.396;6.656;2023-11-21T04:53:52;7.50;99.90
7894;DHT22;51343;51.396;6.656;2023-11-21T04:56:19;7.50;99.90
7894;DHT22;51343;51.396;6.656;2023-11-21T04:58:47;7.50;99.90
7894;DHT22;51343;51.396;6.656;2023-11-21T05:01:14;7.50;99.90
7894;DHT22;51343;51.396;6.656;2023-11-21T05:03:40;7.40;99.90
7894;DHT22;51343;51.396;6.656;2023-11-21T05:06:09;7.40;99.90
7894;DHT22;51343;51.396;6.656;2023-11-21T05:08:35;7.40;99.90
7894;DHT22;51343;51.396;6.656;2023-11-21T05:11:02;7.40;99.90
7894;DHT22;51343;51.396;6.656;2023-11-21T05:13:29;7.40;99.90
7894;DHT22;51343;51.396;6.656;2023-11-21T05:15:57;7.30;99.90
7894;DHT22;51343;51.396;6.656;2023-11-21T05:18:23;7.30;99.90
7894;DHT22;51343;51.396;6.656;2023-11-21T05:20:52;7.30;99.90
7894;DHT22;51343;51.396;6.656;2023-11-21T05:23:19;7.30;99.90
7894;DHT22;51343;51.396;6.656;2023-11-21T05:25:45;7.30;99.90
7894;DHT22;51343;51.396;6.656;2023-11-21T05:28:12;7.40;99.90
7894;DHT22;51343;51.396;6.656;2023-11-21T05:30:39;7.50;99.90
7894;DHT22;51343;51.396;6.656;2023-11-21T05:33:07;7.50;99.90
7894;DHT22;51343;51.396;6.656;2023-11-21T05:35:34;7.50;99.90
7894;DHT22;51343;51.396;6.656;2023-11-21T05:38:00;7.50;99.90
7894;DHT22;51343;51.396;6.656;2023-11-21T05:40:27;7.60;99.90
7894;DHT22;51343;51.396;6.656;2023-11-21T05:42:55;7.60;99.90
7894;DHT22;51343;51.396;6.656;2023-11-21T05:45:22;7.60;99.90
7894;DHT22;51343;51.396;6.656;2023-11-21T05:47:48;7.60;99.90
7894;DHT22;51343;51.396;6.656;2023-11-21T05:50:17;7.60;99.90
7894;DHT22;51343;51.396;6.656;2023-11-21T05:52:44;7.60;99.90
7894;DHT22;51343;51.396;6.656;2023-11-21T05:55:11;7.60;99.90
7894;DHT22;51343;51.396;6.656;2023-11-21T05:57:38;7.70;99.90
7894;DHT22;51343;51.396;6.656;2023-11-21T06:00:05;7.70;99.90
7894;DHT22;51343;51.396;6.656;2023-11-21T06:02:36;7.70;99.90
7894;DHT22;51343;51.396;6.656;2023-11-21T06:05:03;7.70;99.90
7894;DHT22;51343;51.396;6.656;2023-11-21T06:07:31;7.70;99.90
7894;DHT22;51343;51.396;6.656;2023-11-21T06:09:58;7.70;99.90
7894;DHT22;51343;51.396;6.656;2023-11-21T06:12:25;7.70;99.90
7894;DHT22;51343;51.396;6.656;2023-11-21T06:14:51;7.70;99.90
7894;DHT22;51343;51.396;6.656;2023-11-21T06:17:18;7.70;99.90
7894;DHT22;51343;51.396;6.656;2023-11-21T06:19:45;7.70;99.90
7894;DHT22;51343;51.396;6.656;2023-11-21T06:22:12;7.70;99.90
7894;DHT22;51343;51.396;6.656;2023-11-21T06:24:39;7.70;99.90
7894;DHT22;51343;51.396;6.656;2023-11-21T06:27:07;7.70;99.90
7894;DHT22;51343;51.396;6.656;2023-11-21T06:29:34;7.70;99.90
7894;DHT22;51343;51.396;6.656;2023-11-21T06:32:01;7.80;99.90
7894;DHT22;51343;51.396;6.656;2023-11-21T06:34:29;7.80;99.90
7894;DHT22;51343;51.396;6.656;2023-11-21T06:36:56;7.70;99.90
7894;DHT22;51343;51.396;6.656;2023-11-21T06:39:22;7.70;99.90
7894;DHT22;51343;51.396;6.656;2023-11-21T06:41:50;7.70;99.90
7894;DHT22;51343;51.396;6.656;2023-11-21T06:44:17;7.70;99.90
7894;DHT22;51343;51.396;6.656;2023-11-21T06:46:45;7.80;99.90
7894;DHT22;51343;51.396;6.656;2023-11-21T06:49:11;7.80;99.90
7894;DHT22;51343;51.396;6.656;2023-11-21T06:51:38;7.80;99.90
7894;DHT22;51343;51.396;6.656;2023-11-21T06:54:05;7.80;99.90
7894;DHT22;51343;51.396;6.656;2023-11-21T06:56:32;7.70;99.90
7894;DHT22;51343;51.396;6.656;2023-11-21T06:59:00;7.80;99.90
7894;DHT22;51343;51.396;6.656;2023-11-21T07:01:27;7.80;99.90
7894;DHT22;51343;51.396;6.656;2023-11-21T07:03:53;7.80;99.90
7894;DHT22;51343;51.396;6.656;2023-11-21T07:06:20;7.80;99.90
7894;DHT22;51343;51.396;6.656;2023-11-21T07:08:46;7.80;99.90
7894;DHT22;51343;51.396;6.656;2023-11-21T07:11:13;7.80;99.90
7894;DHT22;51343;51.396;6.656;2023-11-21T07:13:40;7.80;99.90
7894;DHT22;51343;51.396;6.656;2023-11-21T07:16:08;7.80;99.90
7894;DHT22;51343;51.396;6.656;2023-11-21T07:18:35;7.80;99.90
7894;DHT22;51343;51.396;6.656;2023-11-21T07:21:02;7.80;99.90
7894;DHT22;51343;51.396;6.656;2023-11-21T07:23:29;7.80;99.90
7894;DHT22;51343;51.396;6.656;2023-11-21T07:25:55;7.80;99.90
7894;DHT22;51343;51.396;6.656;2023-11-21T07:28:23;7.80;99.90
7894;DHT22;51343;51.396;6.656;2023-11-21T07:30:52;7.80;99.90
7894;DHT22;51343;51.396;6.656;2023-11-21T07:33:20;7.80;99.90
7894;DHT22;51343;51.396;6.656;2023-11-21T07:35:47;7.90;99.90
7894;DHT22;51343;51.396;6.656;2023-11-21T07:38:14;7.90;99.90
7894;DHT22;51343;51.396;6.656;2023-11-21T07:40:43;7.80;99.90
7894;DHT22;51343;51.396;6.656;2023-11-21T07:43:10;7.80;99.90
7894;DHT22;51343;51.396;6.656;2023-11-21T07:45:36;7.80;99.90
7894;DHT22;51343;51.396;6.656;2023-11-21T07:48:03;7.90;99.90
7894;DHT22;51343;51.396;6.656;2023-11-21T07:50:31;7.90;99.90
7894;DHT22;51343;51.396;6.656;2023-11-21T07:52:58;8.00;99.90
7894;DHT22;51343;51.396;6.656;2023-11-21T07:55:25;8.00;99.90
7894;DHT22;51343;51.396;6.656;2023-11-21T07:57:52;8.10;99.90
7894;DHT22;51343;51.396;6.656;2023-11-21T08:00:18;8.10;99.90
7894;DHT22;51343;51.396;6.656;2023-11-21T08:02:47;8.10;99.90
7894;DHT22;51343;51.396;6.656;2023-11-21T08:05:14;8.10;99.90
7894;DHT22;51343;51.396;6.656;2023-11-21T08:07:42;8.20;99.90
7894;DHT22;51343;51.396;6.656;2023-11-21T08:10:09;8.20;99.90
7894;DHT22;51343;51.396;6.656;2023-11-21T08:12:36;8.20;99.90
7894;DHT22;51343;51.396;6.656;2023-11-21T08:15:04;8.20;99.90
7894;DHT22;51343;51.396;6.656;2023-11-21T08:17:31;8.20;99.90
7894;DHT22;51343;51.396;6.656;2023-11-21T08:19:58;8.20;99.90
7894;DHT22;51343;51.396;6.656;2023-11-21T08:22:24;8.20;99.90
7894;DHT22;51343;51.396;6.656;2023-11-21T08:24:52;8.20;99.90
7894;DHT22;51343;51.396;6.656;2023-11-21T08:27:21;8.30;99.90
7894;DHT22;51343;51.396;6.656;2023-11-21T08:29:47;8.30;99.90
7894;DHT22;51343;51.396;6.656;2023-11-21T08:32:14;8.30;99.90
7894;DHT22;51343;51.396;6.656;2023-11-21T08:34:40;8.30;99.90
7894;DHT22;51343;51.396;6.656;2023-11-21T08:37:09;8.30;99.90
7894;DHT22;51343;51.396;6.656;2023-11-21T08:39:37;8.30;99.90
7894;DHT22;51343;51.396;6.656;2023-11-21T08:42:05;8.30;99.90
7894;DHT22;51343;51.396;6.656;2023-11-21T08:44:32;8.30;99.90
7894;DHT22;51343;51.396;6.656;2023-11-21T08:46:58;8.40;99.90
7894;DHT22;51343;51.396;6.656;2023-11-21T08:49:25;8.40;99.90
7894;DHT22;51343;51.396;6.656;2023-11-21T08:51:53;8.30;99.90
7894;DHT22;51343;51.396;6.656;2023-11-21T08:54:20;8.40;99.90
7894;DHT22;51343;51.396;6.656;2023-11-21T08:56:47;8.40;99.90
7894;DHT22;51343;51.396;6.656;2023-11-21T08:59:15;8.40;99.90
7894;DHT22;51343;51.396;6.656;2023-11-21T09:01:41;8.50;99.90
7894;DHT22;51343;51.396;6.656;2023-11-21T09:04:08;8.50;99.90
7894;DHT22;51343;51.396;6.656;2023-11-21T09:06:34;8.50;99.90
7894;DHT22;51343;51.396;6.656;2023-11-21T09:09:01;8.40;99.90
7894;DHT22;51343;51.396;6.656;2023-11-21T09:11:30;8.50;99.90
7894;DHT22;51343;51.396;6.656;2023-11-21T09:13:58;8.50;99.90
7894;DHT22;51343;51.396;6.656;2023-11-21T09:16:26;8.50;99.90
7894;DHT22;51343;51.396;6.656;2023-11-21T09:18:53;8.50;99.90
7894;DHT22;51343;51.396;6.656;2023-11-21T09:21:20;8.50;99.90
7894;DHT22;51343;51.396;6.656;2023-11-21T09:23:46;8.50;99.90
7894;DHT22;51343;51.396;6.656;2023-11-21T09:26:13;8.50;99.90
7894;DHT22;51343;51.396;6.656;2023-11-21T09:28:41;8.50;99.90
7894;DHT22;51343;51.396;6.656;2023-11-21T09:31:11;8.60;99.90
7894;DHT22;51343;51.396;6.656;2023-11-21T09:33:39;8.60;99.90
7894;DHT22;51343;51.396;6.656;2023-11-21T09:36:10;8.60;99.90
7894;DHT22;51343;51.396;6.656;2023-11-21T09:38:37;8.60;99.90
7894;DHT22;51343;51.396;6.656;2023-11-21T09:41:04;8.80;99.90
7894;DHT22;51343;51.396;6.656;2023-11-21T09:43:32;8.80;99.90
7894;DHT22;51343;51.396;6.656;2023-11-21T09:46:00;8.80;99.90
7894;DHT22;51343;51.396;6.656;2023-11-21T09:48:27;8.80;99.90
7894;DHT22;51343;51.396;6.656;2023-11-21T09:50:56;8.90;99.90
7894;DHT22;51343;51.396;6.656;2023-11-21T09:53:23;8.80;99.90
7894;DHT22;51343;51.396;6.656;2023-11-21T09:55:53;8.90;99.90
7894;DHT22;51343;51.396;6.656;2023-11-21T09:58:20;8.90;99.90
7894;DHT22;51343;51.396;6.656;2023-11-21T10:00:47;8.90;99.90
7894;DHT22;51343;51.396;6.656;2023-11-21T10:03:14;8.90;99.90
7894;DHT22;51343;51.396;6.656;2023-11-21T10:05:42;8.90;99.90
7894;DHT22;51343;51.396;6.656;2023-11-21T10:08:11;8.90;99.90
7894;DHT22;51343;51.396;6.656;2023-11-21T10:10:38;8.90;99.90
7894;DHT22;51343;51.396;6.656;2023-11-21T10:13:06;9.00;99.90
7894;DHT22;51343;51.396;6.656;2023-11-21T10:15:37;9.00;99.90
7894;DHT22;51343;51.396;6.656;2023-11-21T10:18:04;9.10;99.90
7894;DHT22;51343;51.396;6.656;2023-11-21T10:20:31;9.10;99.90
7894;DHT22;51343;51.396;6.656;2023-11-21T10:22:59;9.20;99.90
7894;DHT22;51343;51.396;6.656;2023-11-21T10:25:28;9.30;99.90
7894;DHT22;51343;51.396;6.656;2023-11-21T10:27:57;9.20;99.90
7894;DHT22;51343;51.396;6.656;2023-11-21T10:30:27;9.20;99.90
7894;DHT22;51343;51.396;6.656;2023-11-21T10:32:58;9.20;99.90
7894;DHT22;51343;51.396;6.656;2023-11-21T10:35:24;9.20;99.90
7894;DHT22;51343;51.396;6.656;2023-11-21T10:37:59;9.30;99.90
7894;DHT22;51343;51.396;6.656;2023-11-21T10:40:27;9.30;99.90
7894;DHT22;51343;51.396;6.656;2023-11-21T10:42:55;9.30;99.90
7894;DHT22;51343;51.396;6.656;2023-11-21T10:45:32;9.40;99.90
7894;DHT22;51343;51.396;6.656;2023-11-21T10:47:59;9.40;99.90
7894;DHT22;51343;51.396;6.656;2023-11-21T10:50:26;9.50;99.90
7894;DHT22;51343;51.396;6.656;2023-11-21T10:52:52;9.50;99.90
7894;DHT22;51343;51.396;6.656;2023-11-21T10:55:20;9.40;99.90
7894;DHT22;51343;51.396;6.656;2023-11-21T10:57:49;9.50;99.90
7894;DHT22;51343;51.396;6.656;2023-11-21T11:00:19;9.50;99.90
7894;DHT22;51343;51.396;6.656;2023-11-21T11:02:46;9.60;99.90
7894;DHT22;51343;51.396;6.656;2023-11-21T11:05:14;9.70;99.90
7894;DHT22;51343;51.396;6.656;2023-11-21T11:07:41;9.70;99.90
7894;DHT22;51343;51.396;6.656;2023-11-21T11:10:09;9.70;99.90
7894;DHT22;51343;51.396;6.656;2023-11-21T11:12:39;9.70;99.90
7894;DHT22;51343;51.396;6.656;2023-11-21T11:15:06;9.70;99.90
7894;DHT22;51343;51.396;6.656;2023-11-21T11:17:35;9.70;99.90
7894;DHT22;51343;51.396;6.656;2023-11-21T11:20:04;9.70;99.90
7894;DHT22;51343;51.396;6.656;2023-11-21T11:22:37;9.70;99.90
7894;DHT22;51343;51.396;6.656;2023-11-21T11:25:12;9.80;99.90
7894;DHT22;51343;51.396;6.656;2023-11-21T11:27:44;9.80;99.90
7894;DHT22;51343;51.396;6.656;2023-11-21T11:30:16;9.90;99.90
7894;DHT22;51343;51.396;6.656;2023-11-21T11:32:50;9.90;99.90
7894;DHT22;51343;51.396;6.656;2023-11-21T11:35:23;9.80;99.90
7894;DHT22;51343;51.396;6.656;2023-11-21T11:37:52;9.80;99.90
7894;DHT22;51343;51.396;6.656;2023-11-21T11:40:20;9.70;99.90
7894;DHT22;51343;51.396;6.656;2023-11-21T11:42:56;9.70;99.90
7894;DHT22;51343;51.396;6.656;2023-11-21T11:45:23;9.80;99.90
7894;DHT22;51343;51.396;6.656;2023-11-21T11:47:57;9.70;99.90
7894;DHT22;51343;51.396;6.656;2023-11-21T11:50:24;9.80;99.90
7894;DHT22;51343;51.396;6.656;2023-11-21T11:52:52;9.90;99.90
7894;DHT22;51343;51.396;6.656;2023-11-21T11:55:20;9.90;99.90
7894;DHT22;51343;51.396;6.656;2023-11-21T11:57:47;9.90;99.90
7894;DHT22;51343;51.396;6.656;2023-11-21T12:00:16;9.90;99.90
7894;DHT22;51343;51.396;6.656;2023-11-21T12:02:45;9.80;99.90
7894;DHT22;51343;51.396;6.656;2023-11-21T12:05:14;9.90;99.90
7894;DHT22;51343;51.396;6.656;2023-11-21T12:07:48;9.80;99.90
7894;DHT22;51343;51.396;6.656;2023-11-21T12:10:16;9.90;99.90
7894;DHT22;51343;51.396;6.656;2023-11-21T12:12:43;9.90;99.90
7894;DHT22;51343;51.396;6.656;2023-11-21T12:15:11;10.00;99.90
7894;DHT22;51343;51.396;6.656;2023-11-21T12:17:38;10.00;99.90
7894;DHT22;51343;51.396;6.656;2023-11-21T12:20:05;10.00;99.90
7894;DHT22;51343;51.396;6.656;2023-11-21T12:22:42;10.00;99.90
7894;DHT22;51343;51.396;6.656;2023-11-21T12:25:09;10.00;99.90
7894;DHT22;51343;51.396;6.656;2023-11-21T12:27:40;10.10;99.90
7894;DHT22;51343;51.396;6.656;2023-11-21T12:30:07;10.10;99.90
7894;DHT22;51343;51.396;6.656;2023-11-21T12:32:38;10.30;99.90
7894;DHT22;51343;51.396;6.656;2023-11-21T12:35:05;10.40;99.90
7894;DHT22;51343;51.396;6.656;2023-11-21T12:37:35;10.40;99.90
7894;DHT22;51343;51.396;6.656;2023-11-21T12:40:05;10.50;99.90
7894;DHT22;51343;51.396;6.656;2023-11-21T12:42:32;10.50;99.90
7894;DHT22;51343;51.396;6.656;2023-11-21T12:45:09;10.50;99.90
7894;DHT22;51343;51.396;6.656;2023-11-21T12:47:40;10.50;99.90
7894;DHT22;51343;51.396;6.656;2023-11-21T12:50:07;10.40;99.90
7894;DHT22;51343;51.396;6.656;2023-11-21T12:52:40;10.30;99.90
7894;DHT22;51343;51.396;6.656;2023-11-21T12:55:08;10.20;99.90
7894;DHT22;51343;51.396;6.656;2023-11-21T12:57:35;10.20;99.90
7894;DHT22;51343;51.396;6.656;2023-11-21T13:00:03;10.10;99.90
7894;DHT22;51343;51.396;6.656;2023-11-21T13:02:36;10.00;99.90
7894;DHT22;51343;51.396;6.656;2023-11-21T13:05:03;10.00;99.90
7894;DHT22;51343;51.396;6.656;2023-11-21T13:07:40;10.00;99.90
7894;DHT22;51343;51.396;6.656;2023-11-21T13:10:13;10.00;99.90
7894;DHT22;51343;51.396;6.656;2023-11-21T13:12:42;10.00;99.90
7894;DHT22;51343;51.396;6.656;2023-11-21T13:15:09;9.90;99.90
7894;DHT22;51343;51.396;6.656;2023-11-21T13:17:36;9.80;99.90
7894;DHT22;51343;51.396;6.656;2023-11-21T13:20:04;9.80;99.90
7894;DHT22;51343;51.396;6.656;2023-11-21T13:22:34;9.80;99.90
7894;DHT22;51343;51.396;6.656;2023-11-21T13:25:01;9.90;99.90
7894;DHT22;51343;51.396;6.656;2023-11-21T13:27:33;9.90;99.90
7894;DHT22;51343;51.396;6.656;2023-11-21T13:30:02;9.80;99.90
7894;DHT22;51343;51.396;6.656;2023-11-21T13:32:30;9.80;99.90
7894;DHT22;51343;51.396;6.656;2023-11-21T13:34:57;9.70;99.90
7894;DHT22;51343;51.396;6.656;2023-11-21T13:37:25;9.70;99.90
7894;DHT22;51343;51.396;6.656;2023-11-21T13:39:53;9.60;99.90
7894;DHT22;51343;51.396;6.656;2023-11-21T13:42:21;9.60;99.90
7894;DHT22;51343;51.396;6.656;2023-11-21T13:44:57;9.60;99.90
7894;DHT22;51343;51.396;6.656;2023-11-21T13:47:23;9.60;99.90
7894;DHT22;51343;51.396;6.656;2023-11-21T13:49:54;9.60;99.90
7894;DHT22;51343;51.396;6.656;2023-11-21T13:52:21;9.50;99.90
7894;DHT22;51343;51.396;6.656;2023-11-21T13:54:51;9.40;99.90
7894;DHT22;51343;51.396;6.656;2023-11-21T13:57:18;9.40;99.90
7894;DHT22;51343;51.396;6.656;2023-11-21T13:59:46;9.40;99.90
7894;DHT22;51343;51.396;6.656;2023-11-21T14:02:13;9.40;99.90
7894;DHT22;51343;51.396;6.656;2023-11-21T14:04:43;9.40;99.90
7894;DHT22;51343;51.396;6.656;2023-11-21T14:07:19;9.40;99.90
7894;DHT22;51343;51.396;6.656;2023-11-21T14:09:58;9.40;99.90
7894;DHT22;51343;51.396;6.656;2023-11-21T14:12:24;9.30;99.90
7894;DHT22;51343;51.396;6.656;2023-11-21T14:14:51;9.30;99.90
7894;DHT22;51343;51.396;6.656;2023-11-21T14:17:19;9.30;99.90
7894;DHT22;51343;51.396;6.656;2023-11-21T14:19:47;9.30;99.90
7894;DHT22;51343;51.396;6.656;2023-11-21T14:22:14;9.30;99.90
7894;DHT22;51343;51.396;6.656;2023-11-21T14:24:42;9.30;99.90
7894;DHT22;51343;51.396;6.656;2023-11-21T14:27:12;9.30;99.90
7894;DHT22;51343;51.396;6.656;2023-11-21T14:29:40;9.30;99.90
7894;DHT22;51343;51.396;6.656;2023-11-21T14:32:09;9.30;99.90
7894;DHT22;51343;51.396;6.656;2023-11-21T14:34:37;9.30;99.90
7894;DHT22;51343;51.396;6.656;2023-11-21T14:37:06;9.30;99.90
7894;DHT22;51343;51.396;6.656;2023-11-21T14:39:32;9.30;99.90
7894;DHT22;51343;51.396;6.656;2023-11-21T14:42:03;9.20;99.90
7894;DHT22;51343;51.396;6.656;2023-11-21T14:44:33;9.30;99.90
7894;DHT22;51343;51.396;6.656;2023-11-21T14:47:03;9.20;99.90
7894;DHT22;51343;51.396;6.656;2023-11-21T14:49:39;9.20;99.90
7894;DHT22;51343;51.396;6.656;2023-11-21T14:52:18;9.20;99.90
7894;DHT22;51343;51.396;6.656;2023-11-21T14:54:57;9.20;99.90
7894;DHT22;51343;51.396;6.656;2023-11-21T14:57:45;9.20;99.90
7894;DHT22;51343;51.396;6.656;2023-11-21T15:00:15;9.20;99.90
7894;DHT22;51343;51.396;6.656;2023-11-21T15:03:03;9.20;99.90
7894;DHT22;51343;51.396;6.656;2023-11-21T15:05:30;9.20;99.90
7894;DHT22;51343;51.396;6.656;2023-11-21T15:07:59;9.10;99.90
7894;DHT22;51343;51.396;6.656;2023-11-21T15:10:39;9.10;99.90
7894;DHT22;51343;51.396;6.656;2023-11-21T15:13:11;9.10;99.90
7894;DHT22;51343;51.396;6.656;2023-11-21T15:15:37;9.10;99.90
7894;DHT22;51343;51.396;6.656;2023-11-21T15:18:05;9.10;99.90
7894;DHT22;51343;51.396;6.656;2023-11-21T15:20:33;9.10;99.90
7894;DHT22;51343;51.396;6.656;2023-11-21T15:23:00;9.10;99.90
7894;DHT22;51343;51.396;6.656;2023-11-21T15:25:28;9.10;99.90
7894;DHT22;51343;51.396;6.656;2023-11-21T15:27:54;9.00;99.90
7894;DHT22;51343;51.396;6.656;2023-11-21T15:30:21;9.00;99.90
7894;DHT22;51343;51.396;6.656;2023-11-21T15:32:50;9.00;99.90
7894;DHT22;51343;51.396;6.656;2023-11-21T15:35:17;8.90;99.90
7894;DHT22;51343;51.396;6.656;2023-11-21T15:37:45;8.90;99.90
7894;DHT22;51343;51.396;6.656;2023-11-21T15:40:11;8.90;99.90
7894;DHT22;51343;51.396;6.656;2023-11-21T15:42:40;8.90;99.90
7894;DHT22;51343;51.396;6.656;2023-11-21T15:45:07;8.90;99.90
7894;DHT22;51343;51.396;6.656;2023-11-21T15:47:34;8.80;99.90
7894;DHT22;51343;51.396;6.656;2023-11-21T15:50:01;8.80;99.90
7894;DHT22;51343;51.396;6.656;2023-11-21T15:52:29;8.70;99.90
7894;DHT22;51343;51.396;6.656;2023-11-21T15:54:57;8.70;99.90
7894;DHT22;51343;51.396;6.656;2023-11-21T15:57:24;8.60;99.90
7894;DHT22;51343;51.396;6.656;2023-11-21T15:59:50;8.60;99.90
7894;DHT22;51343;51.396;6.656;2023-11-21T16:02:17;8.50;99.90
7894;DHT22;51343;51.396;6.656;2023-11-21T16:04:43;8.50;99.90